Aérodrome :
LOGIN :

S'inscrire | Disclaimer

   EN    FR    IT 

 










Légende :    VFR   VFR Marginal   IFR   IFR Intensif   IFR Très Intensif
Visi : 
Plafond : 
>= 8 km
>= 3000ft
5 à 8 km
1000 à 3000 ft
1500m à 5 km
500 à 1000 ft
800 à 1500m
200 à 500 ft
< 800m
< 200 ft
Symboles :   Orages  Brouillard  Fortes neiges  Fortes précipitations  Vent > 20 kt
SIGMETs :   Divers  Orages  Givrage  Turbulence  Onde Orograph.  Cendres Volcan.






- Altitude de l'aérodrome : 844 ft
- Code IATA : OSR


LKMT - Ostrava-Mosnov

DERNIER METAR :
  • 221730Z 22008KT 6000 -SN FEW015 BKN020 OVC028 M01/M03 Q1030 NOSIG

METARs EXPIRÉS :
  • 221700Z 22009KT 6000 -SN FEW016 OVC024 M02/M04 Q1030 NOSIG
  • 221630Z 22009KT 7000 FEW016 SCT021 OVC024 M02/M03 Q1029 NOSIG
  • 221600Z 22010KT 6000 -SN OVC016 M02/M04 Q1029 NOSIG
  • 221542Z 22010KT 4500 -SN FEW014 OVC016 M02/M04 Q1029 RMK REG QNH 1026
  • 221530Z 23011KT 6000 FEW012 OVC014 M02/M04 Q1029 NOSIG
  • 221500Z 22012KT 6000 SCT013 OVC018 M02/M04 Q1029 NOSIG

TAF TAF LKMT
Valide du 22 à 18h jusqu'au 24 à 00h UTC


221700Z 2218/2400 22010KT 6000 BKN015
BECMG 2218/2219 01008KT
BECMG 2304/2306 21008KT
TEMPO 2218/2313 4000 BR BKN009
PROB30
TEMPO 2218/2219 2000 -SN BKN005



MET'MAP, la Météo Aéronautique d'un coup d'oeil ! - Copyright ORBIFLY Décembre 2007 - Disclaimer

ORBIFLY MET'MAP TEAM :

Programmation & Développement : Alexandra Zaïnal
Sur une idée originale de : Baudouin d'Aumeries
Assistance à la programmation : Marc-Olivier Méhu
Soutien technique & logistique : Manuel Goepfert

Contact : metmap@orbifly.com




SOURCES & CREDITS :

   NOAA